sensor_id;sensor_type;location;lat;lon;timestamp;P1;durP1;ratioP1;P2;durP2;ratioP2
20776;SDS011;10548;47.504;8.248;2022-10-01T00:01:14;23.13;;;14.93;;
20776;SDS011;10548;47.504;8.248;2022-10-01T00:03:43;39.23;;;18.90;;
20776;SDS011;10548;47.504;8.248;2022-10-01T00:06:12;42.10;;;21.37;;
20776;SDS011;10548;47.504;8.248;2022-10-01T00:08:43;94.10;;;21.47;;
20776;SDS011;10548;47.504;8.248;2022-10-01T00:11:15;65.60;;;28.50;;
20776;SDS011;10548;47.504;8.248;2022-10-01T00:13:44;28.00;;;19.37;;
20776;SDS011;10548;47.504;8.248;2022-10-01T00:16:16;27.63;;;15.73;;
20776;SDS011;10548;47.504;8.248;2022-10-01T00:18:48;19.30;;;14.13;;
20776;SDS011;10548;47.504;8.248;2022-10-01T00:21:17;30.07;;;17.80;;
20776;SDS011;10548;47.504;8.248;2022-10-01T00:23:46;31.23;;;18.73;;
20776;SDS011;10548;47.504;8.248;2022-10-01T00:26:18;27.50;;;15.53;;
20776;SDS011;10548;47.504;8.248;2022-10-01T00:28:48;26.10;;;17.40;;
20776;SDS011;10548;47.504;8.248;2022-10-01T00:31:20;24.77;;;16.07;;
20776;SDS011;10548;47.504;8.248;2022-10-01T00:33:47;26.10;;;16.37;;
20776;SDS011;10548;47.504;8.248;2022-10-01T00:36:16;20.30;;;13.63;;
20776;SDS011;10548;47.504;8.248;2022-10-01T00:38:44;60.17;;;21.97;;
20776;SDS011;10548;47.504;8.248;2022-10-01T00:41:13;143.83;;;26.70;;
20776;SDS011;10548;47.504;8.248;2022-10-01T00:43:42;123.50;;;27.47;;
20776;SDS011;10548;47.504;8.248;2022-10-01T00:46:19;142.77;;;30.87;;
20776;SDS011;10548;47.504;8.248;2022-10-01T00:48:54;123.93;;;32.50;;
20776;SDS011;10548;47.504;8.248;2022-10-01T00:51:29;82.33;;;28.40;;
20776;SDS011;10548;47.504;8.248;2022-10-01T00:54:01;45.33;;;26.20;;
20776;SDS011;10548;47.504;8.248;2022-10-01T00:56:34;54.90;;;21.83;;
20776;SDS011;10548;47.504;8.248;2022-10-01T00:59:02;33.73;;;20.60;;
20776;SDS011;10548;47.504;8.248;2022-10-01T01:01:30;29.50;;;19.93;;
20776;SDS011;10548;47.504;8.248;2022-10-01T01:04:02;33.40;;;21.17;;
20776;SDS011;10548;47.504;8.248;2022-10-01T01:06:29;25.43;;;19.23;;
20776;SDS011;10548;47.504;8.248;2022-10-01T01:08:56;23.87;;;18.50;;
20776;SDS011;10548;47.504;8.248;2022-10-01T01:11:27;24.47;;;17.50;;
20776;SDS011;10548;47.504;8.248;2022-10-01T01:17:24;26.30;;;17.20;;
20776;SDS011;10548;47.504;8.248;2022-10-01T01:21:29;23.77;;;17.50;;
20776;SDS011;10548;47.504;8.248;2022-10-01T01:26:28;29.60;;;21.67;;
20776;SDS011;10548;47.504;8.248;2022-10-01T01:29:20;29.83;;;21.37;;
20776;SDS011;10548;47.504;8.248;2022-10-01T01:31:56;37.20;;;24.30;;
20776;SDS011;10548;47.504;8.248;2022-10-01T01:34:29;22.63;;;18.73;;
20776;SDS011;10548;47.504;8.248;2022-10-01T01:37:02;27.77;;;18.83;;
20776;SDS011;10548;47.504;8.248;2022-10-01T01:39:38;22.50;;;17.47;;
20776;SDS011;10548;47.504;8.248;2022-10-01T01:42:10;26.73;;;18.80;;
20776;SDS011;10548;47.504;8.248;2022-10-01T01:44:43;21.40;;;18.23;;
20776;SDS011;10548;47.504;8.248;2022-10-01T01:47:12;25.20;;;18.73;;
20776;SDS011;10548;47.504;8.248;2022-10-01T01:49:40;24.33;;;18.13;;
20776;SDS011;10548;47.504;8.248;2022-10-01T01:52:09;26.00;;;19.10;;
20776;SDS011;10548;47.504;8.248;2022-10-01T01:54:43;24.93;;;19.57;;
20776;SDS011;10548;47.504;8.248;2022-10-01T01:57:13;26.90;;;18.30;;
20776;SDS011;10548;47.504;8.248;2022-10-01T01:59:42;28.43;;;19.67;;
20776;SDS011;10548;47.504;8.248;2022-10-01T02:02:18;30.37;;;19.37;;
20776;SDS011;10548;47.504;8.248;2022-10-01T02:04:52;27.80;;;21.07;;
20776;SDS011;10548;47.504;8.248;2022-10-01T02:08:11;27.93;;;20.13;;
20776;SDS011;10548;47.504;8.248;2022-10-01T02:16:56;23.73;;;18.37;;
20776;SDS011;10548;47.504;8.248;2022-10-01T02:19:42;22.30;;;18.27;;
20776;SDS011;10548;47.504;8.248;2022-10-01T02:25:24;19.30;;;17.20;;
20776;SDS011;10548;47.504;8.248;2022-10-01T02:27:58;24.97;;;18.70;;
20776;SDS011;10548;47.504;8.248;2022-10-01T02:30:32;25.70;;;17.40;;
20776;SDS011;10548;47.504;8.248;2022-10-01T02:33:03;20.03;;;15.73;;
20776;SDS011;10548;47.504;8.248;2022-10-01T02:35:31;24.27;;;17.47;;
20776;SDS011;10548;47.504;8.248;2022-10-01T02:38:01;22.23;;;17.87;;
20776;SDS011;10548;47.504;8.248;2022-10-01T02:40:31;25.90;;;20.00;;
20776;SDS011;10548;47.504;8.248;2022-10-01T02:43:04;23.60;;;19.43;;
20776;SDS011;10548;47.504;8.248;2022-10-01T02:45:36;24.77;;;19.27;;
20776;SDS011;10548;47.504;8.248;2022-10-01T02:48:06;24.13;;;20.17;;
20776;SDS011;10548;47.504;8.248;2022-10-01T02:50:48;27.63;;;19.17;;
20776;SDS011;10548;47.504;8.248;2022-10-01T02:53:29;20.27;;;16.87;;
20776;SDS011;10548;47.504;8.248;2022-10-01T02:56:02;22.07;;;17.40;;
20776;SDS011;10548;47.504;8.248;2022-10-01T02:58:31;23.70;;;18.93;;
20776;SDS011;10548;47.504;8.248;2022-10-01T03:00:58;20.70;;;17.73;;
20776;SDS011;10548;47.504;8.248;2022-10-01T03:03:25;27.43;;;19.37;;
20776;SDS011;10548;47.504;8.248;2022-10-01T03:05:52;28.00;;;19.97;;
20776;SDS011;10548;47.504;8.248;2022-10-01T03:08:19;28.23;;;21.20;;
20776;SDS011;10548;47.504;8.248;2022-10-01T03:10:46;25.03;;;20.70;;
20776;SDS011;10548;47.504;8.248;2022-10-01T03:13:13;24.73;;;19.73;;
20776;SDS011;10548;47.504;8.248;2022-10-01T03:15:41;24.03;;;20.23;;
20776;SDS011;10548;47.504;8.248;2022-10-01T03:18:11;28.57;;;20.30;;
20776;SDS011;10548;47.504;8.248;2022-10-01T03:20:38;24.23;;;19.20;;
20776;SDS011;10548;47.504;8.248;2022-10-01T03:23:05;23.97;;;19.50;;
20776;SDS011;10548;47.504;8.248;2022-10-01T03:25:32;29.13;;;19.97;;
20776;SDS011;10548;47.504;8.248;2022-10-01T03:27:59;23.47;;;20.30;;
20776;SDS011;10548;47.504;8.248;2022-10-01T03:30:27;26.53;;;19.33;;
20776;SDS011;10548;47.504;8.248;2022-10-01T03:32:55;23.97;;;19.90;;
20776;SDS011;10548;47.504;8.248;2022-10-01T03:35:22;25.17;;;20.23;;
20776;SDS011;10548;47.504;8.248;2022-10-01T03:37:50;23.57;;;19.40;;
20776;SDS011;10548;47.504;8.248;2022-10-01T03:40:18;21.63;;;18.17;;
20776;SDS011;10548;47.504;8.248;2022-10-01T03:42:45;22.00;;;16.90;;
20776;SDS011;10548;47.504;8.248;2022-10-01T03:45:12;22.20;;;18.10;;
20776;SDS011;10548;47.504;8.248;2022-10-01T03:47:39;23.07;;;16.47;;
20776;SDS011;10548;47.504;8.248;2022-10-01T03:50:06;22.57;;;17.30;;
20776;SDS011;10548;47.504;8.248;2022-10-01T03:52:34;22.17;;;18.30;;
20776;SDS011;10548;47.504;8.248;2022-10-01T03:55:01;20.87;;;17.50;;
20776;SDS011;10548;47.504;8.248;2022-10-01T03:57:28;24.07;;;19.27;;
20776;SDS011;10548;47.504;8.248;2022-10-01T04:00:05;22.23;;;16.87;;
20776;SDS011;10548;47.504;8.248;2022-10-01T04:02:36;20.53;;;16.63;;
20776;SDS011;10548;47.504;8.248;2022-10-01T04:05:04;23.50;;;16.03;;
20776;SDS011;10548;47.504;8.248;2022-10-01T04:07:31;20.80;;;16.27;;
20776;SDS011;10548;47.504;8.248;2022-10-01T04:09:58;23.10;;;16.00;;
20776;SDS011;10548;47.504;8.248;2022-10-01T04:12:25;21.73;;;16.37;;
20776;SDS011;10548;47.504;8.248;2022-10-01T04:14:52;20.63;;;16.70;;
20776;SDS011;10548;47.504;8.248;2022-10-01T04:17:19;19.70;;;15.90;;
20776;SDS011;10548;47.504;8.248;2022-10-01T04:19:46;19.20;;;16.67;;
20776;SDS011;10548;47.504;8.248;2022-10-01T04:22:13;20.73;;;17.40;;
20776;SDS011;10548;47.504;8.248;2022-10-01T04:24:40;25.23;;;15.93;;
20776;SDS011;10548;47.504;8.248;2022-10-01T04:27:08;20.90;;;17.53;;
20776;SDS011;10548;47.504;8.248;2022-10-01T04:29:35;22.67;;;17.47;;
20776;SDS011;10548;47.504;8.248;2022-10-01T04:32:05;22.80;;;16.33;;
20776;SDS011;10548;47.504;8.248;2022-10-01T04:34:32;23.23;;;18.07;;
20776;SDS011;10548;47.504;8.248;2022-10-01T04:37:20;22.43;;;17.50;;
20776;SDS011;10548;47.504;8.248;2022-10-01T04:39:48;23.70;;;16.80;;
20776;SDS011;10548;47.504;8.248;2022-10-01T04:42:15;19.43;;;16.20;;
20776;SDS011;10548;47.504;8.248;2022-10-01T04:44:42;20.27;;;15.73;;
20776;SDS011;10548;47.504;8.248;2022-10-01T04:47:09;17.37;;;13.90;;
20776;SDS011;10548;47.504;8.248;2022-10-01T04:49:36;19.63;;;14.90;;
20776;SDS011;10548;47.504;8.248;2022-10-01T04:52:03;20.03;;;15.47;;
20776;SDS011;10548;47.504;8.248;2022-10-01T04:54:30;24.13;;;14.37;;
20776;SDS011;10548;47.504;8.248;2022-10-01T04:56:57;20.07;;;12.83;;
20776;SDS011;10548;47.504;8.248;2022-10-01T04:59:24;18.17;;;13.97;;
20776;SDS011;10548;47.504;8.248;2022-10-01T05:01:51;18.70;;;14.20;;
20776;SDS011;10548;47.504;8.248;2022-10-01T05:04:19;20.47;;;14.53;;
20776;SDS011;10548;47.504;8.248;2022-10-01T05:06:46;21.30;;;13.53;;
20776;SDS011;10548;47.504;8.248;2022-10-01T05:09:13;14.80;;;13.00;;
20776;SDS011;10548;47.504;8.248;2022-10-01T05:11:40;20.30;;;13.20;;
20776;SDS011;10548;47.504;8.248;2022-10-01T05:14:07;14.87;;;12.43;;
20776;SDS011;10548;47.504;8.248;2022-10-01T05:16:34;17.80;;;12.70;;
20776;SDS011;10548;47.504;8.248;2022-10-01T05:19:01;15.27;;;11.70;;
20776;SDS011;10548;47.504;8.248;2022-10-01T05:21:28;16.23;;;12.33;;
20776;SDS011;10548;47.504;8.248;2022-10-01T05:23:55;15.77;;;12.83;;
20776;SDS011;10548;47.504;8.248;2022-10-01T05:26:22;14.53;;;12.03;;
20776;SDS011;10548;47.504;8.248;2022-10-01T05:28:49;14.73;;;11.77;;
20776;SDS011;10548;47.504;8.248;2022-10-01T05:31:16;17.30;;;12.83;;
20776;SDS011;10548;47.504;8.248;2022-10-01T05:33:44;15.30;;;12.47;;
20776;SDS011;10548;47.504;8.248;2022-10-01T05:36:11;16.20;;;11.67;;
20776;SDS011;10548;47.504;8.248;2022-10-01T05:38:38;12.20;;;10.83;;
20776;SDS011;10548;47.504;8.248;2022-10-01T05:41:05;13.10;;;11.17;;
20776;SDS011;10548;47.504;8.248;2022-10-01T05:43:32;15.80;;;11.57;;
20776;SDS011;10548;47.504;8.248;2022-10-01T05:46:00;13.40;;;11.83;;
20776;SDS011;10548;47.504;8.248;2022-10-01T05:48:28;13.30;;;11.37;;
20776;SDS011;10548;47.504;8.248;2022-10-01T05:51:03;13.90;;;11.97;;
20776;SDS011;10548;47.504;8.248;2022-10-01T05:53:32;20.13;;;12.60;;
20776;SDS011;10548;47.504;8.248;2022-10-01T05:56:05;13.47;;;11.73;;
20776;SDS011;10548;47.504;8.248;2022-10-01T05:58:33;20.37;;;11.73;;
20776;SDS011;10548;47.504;8.248;2022-10-01T06:01:00;15.97;;;12.30;;
20776;SDS011;10548;47.504;8.248;2022-10-01T06:03:28;12.83;;;11.50;;
20776;SDS011;10548;47.504;8.248;2022-10-01T06:05:55;13.57;;;10.43;;
20776;SDS011;10548;47.504;8.248;2022-10-01T06:08:22;13.47;;;10.20;;
20776;SDS011;10548;47.504;8.248;2022-10-01T06:10:49;13.50;;;9.43;;
20776;SDS011;10548;47.504;8.248;2022-10-01T06:13:17;10.83;;;8.17;;
20776;SDS011;10548;47.504;8.248;2022-10-01T06:15:44;11.90;;;8.87;;
20776;SDS011;10548;47.504;8.248;2022-10-01T06:18:12;12.43;;;8.33;;
20776;SDS011;10548;47.504;8.248;2022-10-01T06:20:40;12.50;;;8.07;;
20776;SDS011;10548;47.504;8.248;2022-10-01T06:23:08;11.90;;;7.93;;
20776;SDS011;10548;47.504;8.248;2022-10-01T06:25:38;10.50;;;7.67;;
20776;SDS011;10548;47.504;8.248;2022-10-01T06:28:08;9.97;;;8.10;;
20776;SDS011;10548;47.504;8.248;2022-10-01T06:30:37;10.47;;;7.80;;
20776;SDS011;10548;47.504;8.248;2022-10-01T06:33:09;11.63;;;8.20;;
20776;SDS011;10548;47.504;8.248;2022-10-01T06:35:39;9.90;;;7.83;;
20776;SDS011;10548;47.504;8.248;2022-10-01T06:38:08;10.53;;;7.77;;
20776;SDS011;10548;47.504;8.248;2022-10-01T06:40:36;8.80;;;7.37;;
20776;SDS011;10548;47.504;8.248;2022-10-01T06:43:03;12.53;;;8.10;;
20776;SDS011;10548;47.504;8.248;2022-10-01T06:45:39;9.93;;;7.07;;
20776;SDS011;10548;47.504;8.248;2022-10-01T06:48:08;8.47;;;7.40;;
20776;SDS011;10548;47.504;8.248;2022-10-01T06:50:40;11.13;;;7.80;;
20776;SDS011;10548;47.504;8.248;2022-10-01T06:53:09;11.03;;;7.33;;
20776;SDS011;10548;47.504;8.248;2022-10-01T06:55:37;12.57;;;8.03;;
20776;SDS011;10548;47.504;8.248;2022-10-01T06:58:06;9.30;;;8.13;;
20776;SDS011;10548;47.504;8.248;2022-10-01T07:00:35;9.67;;;7.73;;
20776;SDS011;10548;47.504;8.248;2022-10-01T07:03:05;11.27;;;7.33;;
20776;SDS011;10548;47.504;8.248;2022-10-01T07:05:36;9.47;;;7.53;;
20776;SDS011;10548;47.504;8.248;2022-10-01T07:08:04;8.27;;;7.27;;
20776;SDS011;10548;47.504;8.248;2022-10-01T07:10:32;11.17;;;7.80;;
20776;SDS011;10548;47.504;8.248;2022-10-01T07:13:14;11.30;;;7.77;;
20776;SDS011;10548;47.504;8.248;2022-10-01T07:15:43;9.50;;;6.43;;
20776;SDS011;10548;47.504;8.248;2022-10-01T07:18:11;10.03;;;7.70;;
20776;SDS011;10548;47.504;8.248;2022-10-01T07:20:38;9.43;;;6.97;;
20776;SDS011;10548;47.504;8.248;2022-10-01T07:23:07;9.70;;;7.63;;
20776;SDS011;10548;47.504;8.248;2022-10-01T07:25:38;7.27;;;6.47;;
20776;SDS011;10548;47.504;8.248;2022-10-01T07:28:07;7.87;;;6.77;;
20776;SDS011;10548;47.504;8.248;2022-10-01T07:30:43;8.90;;;6.83;;
20776;SDS011;10548;47.504;8.248;2022-10-01T07:33:18;9.80;;;6.47;;
20776;SDS011;10548;47.504;8.248;2022-10-01T07:35:46;9.30;;;6.97;;
20776;SDS011;10548;47.504;8.248;2022-10-01T07:38:13;10.67;;;7.33;;
20776;SDS011;10548;47.504;8.248;2022-10-01T07:40:40;7.27;;;6.10;;
20776;SDS011;10548;47.504;8.248;2022-10-01T07:43:08;9.73;;;7.37;;
20776;SDS011;10548;47.504;8.248;2022-10-01T07:45:35;12.07;;;7.23;;
20776;SDS011;10548;47.504;8.248;2022-10-01T07:48:03;11.40;;;6.93;;
20776;SDS011;10548;47.504;8.248;2022-10-01T07:50:30;13.47;;;6.83;;
20776;SDS011;10548;47.504;8.248;2022-10-01T07:52:58;10.97;;;7.73;;
20776;SDS011;10548;47.504;8.248;2022-10-01T07:55:26;12.17;;;7.03;;
20776;SDS011;10548;47.504;8.248;2022-10-01T07:57:56;9.07;;;6.67;;
20776;SDS011;10548;47.504;8.248;2022-10-01T08:00:27;9.43;;;6.00;;
20776;SDS011;10548;47.504;8.248;2022-10-01T08:02:55;6.53;;;5.83;;
20776;SDS011;10548;47.504;8.248;2022-10-01T08:05:24;8.33;;;5.80;;
20776;SDS011;10548;47.504;8.248;2022-10-01T08:07:58;9.20;;;5.90;;
20776;SDS011;10548;47.504;8.248;2022-10-01T08:10:27;8.53;;;5.83;;
20776;SDS011;10548;47.504;8.248;2022-10-01T08:12:58;6.27;;;5.67;;
20776;SDS011;10548;47.504;8.248;2022-10-01T08:15:34;8.33;;;5.00;;
20776;SDS011;10548;47.504;8.248;2022-10-01T08:18:02;7.93;;;5.13;;
20776;SDS011;10548;47.504;8.248;2022-10-01T08:20:29;9.77;;;5.77;;
20776;SDS011;10548;47.504;8.248;2022-10-01T08:23:01;6.37;;;4.90;;
20776;SDS011;10548;47.504;8.248;2022-10-01T08:25:32;7.10;;;5.17;;
20776;SDS011;10548;47.504;8.248;2022-10-01T08:27:59;7.93;;;4.80;;
20776;SDS011;10548;47.504;8.248;2022-10-01T08:30:27;6.17;;;4.57;;
20776;SDS011;10548;47.504;8.248;2022-10-01T08:32:55;5.57;;;4.50;;
20776;SDS011;10548;47.504;8.248;2022-10-01T08:35:23;5.77;;;4.00;;
20776;SDS011;10548;47.504;8.248;2022-10-01T08:37:50;6.73;;;4.27;;
20776;SDS011;10548;47.504;8.248;2022-10-01T08:40:17;9.33;;;4.23;;
20776;SDS011;10548;47.504;8.248;2022-10-01T08:42:50;5.20;;;3.63;;
20776;SDS011;10548;47.504;8.248;2022-10-01T08:45:36;6.10;;;3.80;;
20776;SDS011;10548;47.504;8.248;2022-10-01T08:48:12;7.13;;;3.93;;
20776;SDS011;10548;47.504;8.248;2022-10-01T08:50:56;4.60;;;3.17;;
20776;SDS011;10548;47.504;8.248;2022-10-01T08:53:33;5.17;;;3.47;;
20776;SDS011;10548;47.504;8.248;2022-10-01T08:56:23;5.37;;;2.87;;
20776;SDS011;10548;47.504;8.248;2022-10-01T08:58:58;6.37;;;3.37;;
20776;SDS011;10548;47.504;8.248;2022-10-01T09:01:29;6.47;;;3.13;;
20776;SDS011;10548;47.504;8.248;2022-10-01T09:03:57;5.20;;;2.80;;
20776;SDS011;10548;47.504;8.248;2022-10-01T09:06:25;2.97;;;2.43;;
20776;SDS011;10548;47.504;8.248;2022-10-01T09:09:00;5.03;;;2.63;;
20776;SDS011;10548;47.504;8.248;2022-10-01T09:12:11;3.50;;;2.90;;
20776;SDS011;10548;47.504;8.248;2022-10-01T09:18:10;4.70;;;2.50;;
20776;SDS011;10548;47.504;8.248;2022-10-01T09:20:51;5.43;;;3.57;;
20776;SDS011;10548;47.504;8.248;2022-10-01T09:23:26;7.73;;;3.70;;
20776;SDS011;10548;47.504;8.248;2022-10-01T09:25:55;2.77;;;1.97;;
20776;SDS011;10548;47.504;8.248;2022-10-01T09:28:28;6.93;;;3.87;;
20776;SDS011;10548;47.504;8.248;2022-10-01T09:31:15;3.30;;;2.40;;
20776;SDS011;10548;47.504;8.248;2022-10-01T09:34:04;4.97;;;2.13;;
20776;SDS011;10548;47.504;8.248;2022-10-01T09:42:41;2.60;;;1.87;;
20776;SDS011;10548;47.504;8.248;2022-10-01T09:45:17;2.10;;;1.80;;
20776;SDS011;10548;47.504;8.248;2022-10-01T09:47:47;8.43;;;2.10;;
20776;SDS011;10548;47.504;8.248;2022-10-01T09:50:19;8.53;;;2.10;;
20776;SDS011;10548;47.504;8.248;2022-10-01T09:52:55;2.90;;;1.80;;
20776;SDS011;10548;47.504;8.248;2022-10-01T09:58:22;2.50;;;1.83;;
20776;SDS011;10548;47.504;8.248;2022-10-01T10:00:52;2.73;;;1.80;;
20776;SDS011;10548;47.504;8.248;2022-10-01T10:03:25;2.53;;;1.77;;
20776;SDS011;10548;47.504;8.248;2022-10-01T10:05:56;3.90;;;2.23;;
20776;SDS011;10548;47.504;8.248;2022-10-01T10:08:26;2.07;;;1.70;;
20776;SDS011;10548;47.504;8.248;2022-10-01T10:11:03;3.30;;;1.90;;
20776;SDS011;10548;47.504;8.248;2022-10-01T10:13:34;5.83;;;1.83;;
20776;SDS011;10548;47.504;8.248;2022-10-01T10:16:07;2.47;;;1.60;;
20776;SDS011;10548;47.504;8.248;2022-10-01T10:18:41;3.60;;;1.90;;
20776;SDS011;10548;47.504;8.248;2022-10-01T10:21:14;4.43;;;1.57;;
20776;SDS011;10548;47.504;8.248;2022-10-01T10:23:45;2.70;;;1.50;;
20776;SDS011;10548;47.504;8.248;2022-10-01T10:26:31;1.70;;;1.00;;
20776;SDS011;10548;47.504;8.248;2022-10-01T10:29:00;3.37;;;1.30;;
20776;SDS011;10548;47.504;8.248;2022-10-01T10:31:38;3.70;;;1.50;;
20776;SDS011;10548;47.504;8.248;2022-10-01T10:34:10;2.60;;;1.33;;
20776;SDS011;10548;47.504;8.248;2022-10-01T10:36:39;2.50;;;1.50;;
20776;SDS011;10548;47.504;8.248;2022-10-01T10:39:20;3.30;;;1.43;;
20776;SDS011;10548;47.504;8.248;2022-10-01T10:41:49;2.80;;;1.13;;
20776;SDS011;10548;47.504;8.248;2022-10-01T10:44:18;1.63;;;1.00;;
20776;SDS011;10548;47.504;8.248;2022-10-01T10:46:47;2.60;;;1.20;;
20776;SDS011;10548;47.504;8.248;2022-10-01T10:49:17;2.03;;;1.20;;
20776;SDS011;10548;47.504;8.248;2022-10-01T10:51:48;6.53;;;1.40;;
20776;SDS011;10548;47.504;8.248;2022-10-01T10:54:23;4.10;;;1.00;;
20776;SDS011;10548;47.504;8.248;2022-10-01T10:56:51;1.57;;;1.00;;
20776;SDS011;10548;47.504;8.248;2022-10-01T10:59:19;3.00;;;1.20;;
20776;SDS011;10548;47.504;8.248;2022-10-01T11:01:46;1.83;;;1.00;;
20776;SDS011;10548;47.504;8.248;2022-10-01T11:04:57;3.07;;;1.10;;
20776;SDS011;10548;47.504;8.248;2022-10-01T11:07:08;3.33;;;0.90;;
20776;SDS011;10548;47.504;8.248;2022-10-01T11:09:43;5.03;;;1.20;;
20776;SDS011;10548;47.504;8.248;2022-10-01T11:13:46;1.53;;;0.90;;
20776;SDS011;10548;47.504;8.248;2022-10-01T11:19:11;1.67;;;0.90;;
20776;SDS011;10548;47.504;8.248;2022-10-01T11:22:29;2.63;;;1.10;;
20776;SDS011;10548;47.504;8.248;2022-10-01T11:37:29;8.97;;;0.93;;
20776;SDS011;10548;47.504;8.248;2022-10-01T11:40:40;8.67;;;1.13;;
20776;SDS011;10548;47.504;8.248;2022-10-01T11:43:11;1.47;;;0.60;;
20776;SDS011;10548;47.504;8.248;2022-10-01T11:46:14;2.50;;;0.80;;
20776;SDS011;10548;47.504;8.248;2022-10-01T11:48:46;2.20;;;0.60;;
20776;SDS011;10548;47.504;8.248;2022-10-01T11:51:14;0.60;;;0.60;;
20776;SDS011;10548;47.504;8.248;2022-10-01T11:53:45;1.93;;;0.80;;
20776;SDS011;10548;47.504;8.248;2022-10-01T11:56:18;1.10;;;0.60;;
20776;SDS011;10548;47.504;8.248;2022-10-01T11:59:08;2.83;;;0.83;;
20776;SDS011;10548;47.504;8.248;2022-10-01T12:04:43;0.90;;;0.70;;
20776;SDS011;10548;47.504;8.248;2022-10-01T12:07:29;0.70;;;0.60;;
20776;SDS011;10548;47.504;8.248;2022-10-01T12:11:30;5.10;;;0.63;;
20776;SDS011;10548;47.504;8.248;2022-10-01T12:12:53;0.67;;;0.67;;
20776;SDS011;10548;47.504;8.248;2022-10-01T12:15:58;1.57;;;0.90;;
20776;SDS011;10548;47.504;8.248;2022-10-01T12:21:54;2.87;;;0.83;;
20776;SDS011;10548;47.504;8.248;2022-10-01T12:24:51;2.67;;;0.90;;
20776;SDS011;10548;47.504;8.248;2022-10-01T12:27:56;2.00;;;0.90;;
20776;SDS011;10548;47.504;8.248;2022-10-01T12:30:34;0.90;;;0.80;;
20776;SDS011;10548;47.504;8.248;2022-10-01T12:33:31;3.57;;;1.00;;
20776;SDS011;10548;47.504;8.248;2022-10-01T12:36:28;1.93;;;0.97;;
20776;SDS011;10548;47.504;8.248;2022-10-01T12:39:18;1.30;;;1.00;;
20776;SDS011;10548;47.504;8.248;2022-10-01T12:51:56;2.43;;;1.00;;
20776;SDS011;10548;47.504;8.248;2022-10-01T12:57:24;2.20;;;1.40;;
20776;SDS011;10548;47.504;8.248;2022-10-01T13:00:24;4.27;;;1.00;;
20776;SDS011;10548;47.504;8.248;2022-10-01T13:03:13;1.27;;;0.93;;
20776;SDS011;10548;47.504;8.248;2022-10-01T13:10:06;1.93;;;1.20;;
20776;SDS011;10548;47.504;8.248;2022-10-01T13:12:30;2.03;;;1.00;;
20776;SDS011;10548;47.504;8.248;2022-10-01T13:15:23;2.23;;;1.10;;
20776;SDS011;10548;47.504;8.248;2022-10-01T13:18:12;1.00;;;0.70;;
20776;SDS011;10548;47.504;8.248;2022-10-01T13:21:15;2.00;;;1.33;;
20776;SDS011;10548;47.504;8.248;2022-10-01T13:24:10;2.13;;;1.57;;
20776;SDS011;10548;47.504;8.248;2022-10-01T13:27:34;1.50;;;1.10;;
20776;SDS011;10548;47.504;8.248;2022-10-01T13:30:23;3.27;;;1.30;;
20776;SDS011;10548;47.504;8.248;2022-10-01T13:32:54;1.50;;;1.00;;
20776;SDS011;10548;47.504;8.248;2022-10-01T13:35:30;1.90;;;1.40;;
20776;SDS011;10548;47.504;8.248;2022-10-01T13:41:30;1.77;;;1.30;;
20776;SDS011;10548;47.504;8.248;2022-10-01T13:45:01;5.23;;;1.40;;
20776;SDS011;10548;47.504;8.248;2022-10-01T13:47:03;2.90;;;1.20;;
20776;SDS011;10548;47.504;8.248;2022-10-01T13:49:32;2.27;;;1.27;;
20776;SDS011;10548;47.504;8.248;2022-10-01T13:52:01;1.57;;;1.10;;
20776;SDS011;10548;47.504;8.248;2022-10-01T13:54:42;1.80;;;1.33;;
20776;SDS011;10548;47.504;8.248;2022-10-01T13:57:24;2.33;;;1.20;;
20776;SDS011;10548;47.504;8.248;2022-10-01T14:00:20;1.23;;;0.93;;
20776;SDS011;10548;47.504;8.248;2022-10-01T14:03:02;1.23;;;1.07;;
20776;SDS011;10548;47.504;8.248;2022-10-01T14:05:53;1.60;;;1.30;;
20776;SDS011;10548;47.504;8.248;2022-10-01T14:08:30;1.53;;;0.97;;
20776;SDS011;10548;47.504;8.248;2022-10-01T14:11:21;2.30;;;1.20;;
20776;SDS011;10548;47.504;8.248;2022-10-01T14:14:18;1.10;;;1.00;;
20776;SDS011;10548;47.504;8.248;2022-10-01T14:17:12;2.47;;;1.10;;
20776;SDS011;10548;47.504;8.248;2022-10-01T14:19:43;1.93;;;1.03;;
20776;SDS011;10548;47.504;8.248;2022-10-01T14:31:50;2.37;;;1.20;;
20776;SDS011;10548;47.504;8.248;2022-10-01T14:37:28;1.47;;;1.07;;
20776;SDS011;10548;47.504;8.248;2022-10-01T14:42:56;5.23;;;1.27;;
20776;SDS011;10548;47.504;8.248;2022-10-01T14:45:24;3.10;;;1.23;;
20776;SDS011;10548;47.504;8.248;2022-10-01T14:48:04;1.27;;;1.00;;
20776;SDS011;10548;47.504;8.248;2022-10-01T14:50:32;1.73;;;0.90;;
20776;SDS011;10548;47.504;8.248;2022-10-01T14:53:01;1.60;;;0.90;;
20776;SDS011;10548;47.504;8.248;2022-10-01T14:55:28;1.30;;;0.90;;
20776;SDS011;10548;47.504;8.248;2022-10-01T14:57:56;1.23;;;1.03;;
20776;SDS011;10548;47.504;8.248;2022-10-01T15:00:25;2.43;;;1.07;;
20776;SDS011;10548;47.504;8.248;2022-10-01T15:03:11;3.30;;;1.00;;
20776;SDS011;10548;47.504;8.248;2022-10-01T15:05:41;0.80;;;0.80;;
20776;SDS011;10548;47.504;8.248;2022-10-01T15:11:15;2.80;;;0.63;;
20776;SDS011;10548;47.504;8.248;2022-10-01T15:13:45;0.70;;;0.70;;
20776;SDS011;10548;47.504;8.248;2022-10-01T15:16:18;1.63;;;1.10;;
20776;SDS011;10548;47.504;8.248;2022-10-01T15:18:51;4.40;;;1.10;;
20776;SDS011;10548;47.504;8.248;2022-10-01T15:21:33;0.77;;;0.67;;
20776;SDS011;10548;47.504;8.248;2022-10-01T15:24:26;1.70;;;0.90;;
20776;SDS011;10548;47.504;8.248;2022-10-01T15:27:10;1.70;;;0.80;;
20776;SDS011;10548;47.504;8.248;2022-10-01T15:29:40;2.57;;;1.00;;
20776;SDS011;10548;47.504;8.248;2022-10-01T15:32:09;1.93;;;1.00;;
20776;SDS011;10548;47.504;8.248;2022-10-01T15:34:42;0.60;;;0.60;;
20776;SDS011;10548;47.504;8.248;2022-10-01T15:37:33;2.87;;;0.90;;
20776;SDS011;10548;47.504;8.248;2022-10-01T15:40:03;0.60;;;0.60;;
20776;SDS011;10548;47.504;8.248;2022-10-01T15:42:35;7.47;;;0.90;;
20776;SDS011;10548;47.504;8.248;2022-10-01T15:47:53;1.13;;;0.90;;
20776;SDS011;10548;47.504;8.248;2022-10-01T15:50:33;1.03;;;0.80;;
20776;SDS011;10548;47.504;8.248;2022-10-01T15:53:05;0.90;;;0.80;;
20776;SDS011;10548;47.504;8.248;2022-10-01T15:55:45;0.80;;;0.80;;
20776;SDS011;10548;47.504;8.248;2022-10-01T15:58:36;0.83;;;0.60;;
20776;SDS011;10548;47.504;8.248;2022-10-01T16:01:10;0.70;;;0.70;;
20776;SDS011;10548;47.504;8.248;2022-10-01T16:03:54;0.70;;;0.70;;
20776;SDS011;10548;47.504;8.248;2022-10-01T16:06:27;2.63;;;0.90;;
20776;SDS011;10548;47.504;8.248;2022-10-01T16:09:02;0.83;;;0.67;;
20776;SDS011;10548;47.504;8.248;2022-10-01T16:14:42;3.43;;;0.70;;
20776;SDS011;10548;47.504;8.248;2022-10-01T16:17:25;0.83;;;0.70;;
20776;SDS011;10548;47.504;8.248;2022-10-01T16:20:48;2.23;;;0.70;;
20776;SDS011;10548;47.504;8.248;2022-10-01T16:26:03;3.40;;;0.63;;
20776;SDS011;10548;47.504;8.248;2022-10-01T16:28:32;0.50;;;0.50;;
20776;SDS011;10548;47.504;8.248;2022-10-01T16:31:02;0.73;;;0.70;;
20776;SDS011;10548;47.504;8.248;2022-10-01T16:33:30;0.80;;;0.77;;
20776;SDS011;10548;47.504;8.248;2022-10-01T16:36:07;0.60;;;0.60;;
20776;SDS011;10548;47.504;8.248;2022-10-01T16:38:36;1.00;;;0.60;;
20776;SDS011;10548;47.504;8.248;2022-10-01T16:41:03;0.70;;;0.70;;
20776;SDS011;10548;47.504;8.248;2022-10-01T16:43:30;1.07;;;0.70;;
20776;SDS011;10548;47.504;8.248;2022-10-01T16:45:58;1.00;;;0.90;;
20776;SDS011;10548;47.504;8.248;2022-10-01T16:48:25;1.00;;;0.90;;
20776;SDS011;10548;47.504;8.248;2022-10-01T16:50:52;2.40;;;1.13;;
20776;SDS011;10548;47.504;8.248;2022-10-01T16:53:19;1.33;;;0.90;;